Terminal Aerodrome Forecast
Issued by NWS

Home | Current Version | Previous Version | Graphics & Text | Print | Product List | Glossary On
Versions: 1 2 3 4 5 6 7 8 9 10 11 12 13 14 15
000
FTUS43 KOAX 261721
TAFCDR
TAF
KCDR 261721Z 2618/2718 30009KT P6SM FEW070
     FM262200 01008KT P6SM VCTS SCT060CB BKN200
     FM270200 01005KT P6SM VCSH SCT050 BKN150
     FM270400 33004KT P6SM BKN050=

USA.gov is the U.S. government's official web portal to all federal, state and local government web resources and services.